Map

Track Data

SID SEASON NUMBER BASIN SUBBASIN NAME ISO_TIME NATURE LAT LON WMO_WIND WMO_PRES WMO_AGENCY TRACK_TYPE DIST2LAND LANDFALL IFLAG USA_AGENCY USA_ATCF_ID USA_LAT USA_LON USA_RECORD USA_STATUS USA_WIND USA_PRES USA_SSHS USA_R34_NE USA_R34_SE USA_R34_SW USA_R34_NW USA_R50_NE USA_R50_SE USA_R50_SW USA_R50_NW USA_R64_NE USA_R64_SE USA_R64_SW USA_R64_NW USA_POCI USA_ROCI USA_RMW USA_EYE TOKYO_LAT TOKYO_LON TOKYO_GRADE TOKYO_WIND TOKYO_PRES TOKYO_R50_DIR TOKYO_R50_LONG TOKYO_R50_SHORT TOKYO_R30_DIR TOKYO_R30_LONG TOKYO_R30_SHORT TOKYO_LAND CMA_LAT CMA_LON CMA_CAT CMA_WIND CMA_PRES HKO_LAT HKO_LON HKO_CAT HKO_WIND HKO_PRES NEWDELHI_LAT NEWDELHI_LON NEWDELHI_GRADE NEWDELHI_WIND NEWDELHI_PRES NEWDELHI_CI NEWDELHI_DP NEWDELHI_POCI REUNION_LAT REUNION_LON REUNION_TYPE REUNION_WIND REUNION_PRES REUNION_TNUM REUNION_CI REUNION_RMW REUNION_R34_NE REUNION_R34_SE REUNION_R34_SW REUNION_R34_NW REUNION_R50_NE REUNION_R50_SE REUNION_R50_SW REUNION_R50_NW REUNION_R64_NE REUNION_R64_SE REUNION_R64_SW REUNION_R64_NW BOM_LAT BOM_LON BOM_TYPE BOM_WIND BOM_PRES BOM_TNUM BOM_CI BOM_RMW BOM_R34_NE BOM_R34_SE BOM_R34_SW BOM_R34_NW BOM_R50_NE BOM_R50_SE BOM_R50_SW BOM_R50_NW BOM_R64_NE BOM_R64_SE BOM_R64_SW BOM_R64_NW BOM_ROCI BOM_POCI BOM_EYE BOM_POS_METHOD BOM_PRES_METHOD NADI_LAT NADI_LON NADI_CAT NADI_WIND NADI_PRES WELLINGTON_LAT WELLINGTON_LON WELLINGTON_WIND WELLINGTON_PRES DS824_LAT DS824_LON DS824_STAGE DS824_WIND DS824_PRES TD9636_LAT TD9636_LON TD9636_STAGE TD9636_WIND TD9636_PRES TD9635_LAT TD9635_LON TD9635_WIND TD9635_PRES TD9635_ROCI NEUMANN_LAT NEUMANN_LON NEUMANN_CLASS NEUMANN_WIND NEUMANN_PRES MLC_LAT MLC_LON MLC_CLASS MLC_WIND MLC_PRES USA_GUST BOM_GUST BOM_GUST_PER REUNION_GUST REUNION_GUST_PER USA_SEAHGT USA_SEARAD_NE USA_SEARAD_SE USA_SEARAD_SW USA_SEARAD_NW STORM_SPEED STORM_DIR
1917193N19124 1917 27 WP MM NOT_NAMED 1917-07-12 10:00:00 NR 19.2000 124.300 main 228 209 __________O___ -1 19.2000 124.300 4 6 287
1917193N19124 1917 27 WP MM NOT_NAMED 1917-07-12 12:00:00 NR 19.2610 124.087 main 214 187 __________P___ -1 19.2610 124.087 4 6 288
1917193N19124 1917 27 WP MM NOT_NAMED 1917-07-12 15:00:00 NR 19.3607 123.773 main 193 176 __________P___ -1 19.3607 123.773 4 6 291
1917193N19124 1917 27 WP MM NOT_NAMED 1917-07-12 18:00:00 NR 19.4819 123.471 main 176 161 __________P___ -1 19.4819 123.471 4 6 297
1917193N19124 1917 27 WP MM NOT_NAMED 1917-07-12 21:00:00 NR 19.6379 123.188 main 164 164 __________P___ -1 19.6379 123.188 4 6 302
1917193N19124 1917 27 WP MM NOT_NAMED 1917-07-12 22:00:00 NR 19.7000 123.100 main 167 162 __________O___ -1 19.7000 123.100 4 6 310
1917193N19124 1917 27 WP MM NOT_NAMED 1917-07-13 00:00:00 NR 19.8410 122.933 main 168 175 __________P___ -1 19.8410 122.933 4 7 316
1917193N19124 1917 27 WP MM NOT_NAMED 1917-07-13 03:00:00 NR 20.0904 122.701 main 194 194 __________P___ -1 20.0904 122.701 4 7 322
1917193N19124 1917 27 WP MM NOT_NAMED 1917-07-13 06:00:00 NR 20.3768 122.483 main 224 197 __________P___ -1 20.3768 122.483 4 7 326
1917193N19124 1917 27 WP MM NOT_NAMED 1917-07-13 09:00:00 NR 20.6908 122.271 main 197 182 __________P___ -1 20.6908 122.271 4 8 328
1917193N19124 1917 27 WP MM NOT_NAMED 1917-07-13 10:00:00 NR 20.8000 122.200 main 182 159 __________O___ -1 20.8000 122.200 4 8 330
1917193N19124 1917 27 WP MM NOT_NAMED 1917-07-13 12:00:00 NR 21.0265 122.063 main 159 117 __________P___ -1 21.0265 122.063 4 8 331
1917193N19124 1917 27 WP MM NOT_NAMED 1917-07-13 15:00:00 NR 21.3855 121.858 main 117 75 __________P___ -1 21.3855 121.858 4 8 331
1917193N19124 1917 27 WP MM NOT_NAMED 1917-07-13 18:00:00 NR 21.7482 121.639 main 75 51 __________P___ -1 21.7482 121.639 4 8 328
1917193N19124 1917 27 WP MM NOT_NAMED 1917-07-13 21:00:00 NR 22.0929 121.392 main 51 41 __________P___ -1 22.0929 121.392 4 8 325
1917193N19124 1917 27 WP MM NOT_NAMED 1917-07-13 22:00:00 NR 22.2000 121.300 main 41 20 __________O___ -1 22.2000 121.300 4 8 318
1917193N19124 1917 27 WP MM NOT_NAMED 1917-07-14 00:00:00 NR 22.3921 121.100 main 20 0 __________P___ -1 22.3921 121.100 4 8 313
1917193N19124 1917 27 WP MM NOT_NAMED 1917-07-14 03:00:00 NR 22.6551 120.769 main 0 0 __________P___ -1 22.6551 120.769 4 8 308
1917193N19124 1917 27 WP MM NOT_NAMED 1917-07-14 06:00:00 NR 22.8962 120.409 main 0 0 __________P___ -1 22.8962 120.409 4 8 305
1917193N19124 1917 27 WP MM NOT_NAMED 1917-07-14 09:00:00 NR 23.1249 120.029 main 10 10 __________P___ -1 23.1249 120.029 4 8 303
1917193N19124 1917 27 WP MM NOT_NAMED 1917-07-14 10:00:00 NR 23.2000 119.900 main 20 20 __________O___ -1 23.2000 119.900 4 7 306
1917193N19124 1917 27 WP MM NOT_NAMED 1917-07-14 12:00:00 NR 23.3435 119.706 main 42 46 __________P___ -1 23.3435 119.706 4 7 308
1917193N19124 1917 27 WP MM NOT_NAMED 1917-07-14 15:00:00 NR 23.5525 119.404 main 71 71 __________P___ -1 23.5525 119.404 4 8 305
1917193N19124 1917 27 WP MM NOT_NAMED 1917-07-14 18:00:00 NR 23.7695 119.030 main 88 52 __________P___ -1 23.7695 119.030 4 9 299
1917193N19124 1917 27 WP MM NOT_NAMED 1917-07-14 21:00:00 NR 24.0112 118.515 main 52 30 __________P___ -1 24.0112 118.515 4 11 296
1917193N19124 1917 27 WP MM NOT_NAMED 1917-07-14 22:00:00 NR 24.1000 118.300 main 30 0 __________O___ -1 24.1000 118.300 2 15 294
1917193N19124 1917 27 WP MM NOT_NAMED 1917-07-15 00:00:00 NR 24.3160 117.780 main 0 0 __________P___ -1 24.3160 117.780 2 17 293
1917193N19124 1917 27 WP MM NOT_NAMED 1917-07-15 03:00:00 NR 24.6649 116.848 main 0 0 __________P___ -1 24.6649 116.848 2 19 291
1917193N19124 1917 27 WP MM NOT_NAMED 1917-07-15 06:00:00 NR 25.0097 115.790 main 0 0 __________P___ -1 25.0097 115.790 2 21 288
1917193N19124 1917 27 WP MM NOT_NAMED 1917-07-15 09:00:00 NR 25.3137 114.674 main 0 0 __________P___ -1 25.3137 114.674 2 21 286
1917193N19124 1917 27 WP MM NOT_NAMED 1917-07-15 10:00:00 NR 25.4000 114.300 main 0 0 __________O___ -1 25.4000 114.300 2 21 283
1917193N19124 1917 27 WP MM NOT_NAMED 1917-07-15 12:00:00 NR 25.5450 113.562 main 0 0 __________P___ -1 25.5450 113.562 2 20 280
1917193N19124 1917 27 WP MM NOT_NAMED 1917-07-15 15:00:00 NR 25.7034 112.476 main 0 0 __________P___ -1 25.7034 112.476 2 20 278
1917193N19124 1917 27 WP MM NOT_NAMED 1917-07-15 18:00:00 NR 25.8085 111.408 main 0 0 __________P___ -1 25.8085 111.408 2 19 275
1917193N19124 1917 27 WP MM NOT_NAMED 1917-07-15 21:00:00 NR 25.8802 110.351 main 0 0 __________P___ -1 25.8802 110.351 2 19 274
1917193N19124 1917 27 WP MM NOT_NAMED 1917-07-15 22:00:00 NR 25.9000 110.000 main 0 __________O___ -1 25.9000 110.000 2 19 274

Digital Typhoon Data and Search

About IBTrACS Database

This database is a web-friendly format of International Best Track Archive for Climate Stewardship (IBTrACS), a global best track data archive curated by NOAA dating back to 1842.

Updated: 2021-10-21